createdAt,value
2023-01-28T00:00:52.163Z,100658.22
2023-01-28T00:03:18.917Z,100660.78
2023-01-28T00:05:45.621Z,100653.91
2023-01-28T00:08:13.556Z,100659.88
2023-01-28T00:10:41.774Z,100657.31
2023-01-28T00:13:11.437Z,100656.41
2023-01-28T00:15:38.170Z,100653.72
2023-01-28T00:18:04.896Z,100652.94
2023-01-28T00:20:31.638Z,100650.34
2023-01-28T00:22:58.423Z,100651.22
2023-01-28T00:25:25.101Z,100645.06
2023-01-28T00:27:51.845Z,100658.97
2023-01-28T00:30:19.451Z,100652.84
2023-01-28T00:32:46.133Z,100648.53
2023-01-28T00:35:13.687Z,100656.44
2023-01-28T00:37:41.533Z,100653.63
2023-01-28T00:40:09.937Z,100647.59
2023-01-28T00:42:37.384Z,100652.94
2023-01-28T00:45:04.415Z,100652.94
2023-01-28T00:47:31.514Z,100651.22
2023-01-28T00:49:58.344Z,100659.06
2023-01-28T00:52:25.693Z,100650.44
2023-01-28T00:54:54.431Z,100656.59
2023-01-28T00:57:21.165Z,100652.19
2023-01-28T00:59:47.869Z,100649.66
2023-01-28T01:02:14.971Z,100648.84
2023-01-28T01:04:41.852Z,100647.81
2023-01-28T01:07:08.572Z,100643.47
2023-01-28T01:09:35.279Z,100650.34
2023-01-28T01:12:03.347Z,100655.59
2023-01-28T01:14:30.055Z,100651.94
2023-01-28T01:16:56.795Z,100642.25
2023-01-28T01:19:23.511Z,100649.97
2023-01-28T01:21:50.730Z,100644.78
2023-01-28T01:24:17.755Z,100646.44
2023-01-28T01:26:44.531Z,100645.56
2023-01-28T01:29:11.250Z,100646.50
2023-01-28T01:31:38.259Z,100644.94
2023-01-28T01:34:05.322Z,100645.84
2023-01-28T01:36:32.140Z,100646.63
2023-01-28T01:38:58.877Z,100641.59
2023-01-28T01:41:30.723Z,100647.53
2023-01-28T01:43:59.714Z,100650.97
2023-01-28T01:46:35.008Z,100654.47
2023-01-28T01:49:16.240Z,100652.78
2023-01-28T01:51:43.689Z,100652.75
2023-01-28T01:54:10.382Z,100651.94
2023-01-28T01:56:39.841Z,100655.47
2023-01-28T01:59:10.271Z,100662.50
2023-01-28T02:01:36.914Z,100658.16
2023-01-28T02:04:10.984Z,100654.63
2023-01-28T02:06:40.047Z,100652.94
2023-01-28T02:09:21.085Z,100651.94
2023-01-28T02:11:50.275Z,100663.34
2023-01-28T02:14:30.568Z,100650.50
2023-01-28T02:16:59.035Z,100655.69
2023-01-28T02:19:29.652Z,100658.31
2023-01-28T02:22:19.742Z,100661.69
2023-01-28T02:25:13.712Z,100659.94
2023-01-28T02:27:58.168Z,100661.88
2023-01-28T02:30:35.442Z,100659.88
2023-01-28T02:33:16.302Z,100660.84
2023-01-28T02:35:49.979Z,100657.09
2023-01-28T02:38:26.455Z,100667.53
2023-01-28T02:41:09.746Z,100663.47
2023-01-28T02:43:43.027Z,100670.22
2023-01-28T02:46:37.875Z,100670.81
2023-01-28T02:49:08.267Z,100671.81
2023-01-28T02:52:02.149Z,100659.81
2023-01-28T02:54:50.928Z,100665.84
2023-01-28T02:57:17.649Z,100669.13
2023-01-28T02:59:56.167Z,100670.13
2023-01-28T03:02:29.218Z,100677.84
2023-01-28T03:06:03.212Z,100675.41
2023-01-28T03:08:53.659Z,100671.81
2023-01-28T03:11:39.095Z,100671.81
2023-01-28T03:14:28.246Z,100675.34
2023-01-28T03:17:16.259Z,100680.53
2023-01-28T03:20:01.788Z,100676.19
2023-01-28T03:22:51.331Z,100684.88
2023-01-28T03:25:38.866Z,100693.75
2023-01-28T03:28:28.580Z,100684.13
2023-01-28T03:31:23.163Z,100677.31
2023-01-28T03:34:12.115Z,100682.34
2023-01-28T03:36:51.517Z,100686.09
2023-01-28T03:39:37.985Z,100684.53
2023-01-28T03:42:10.622Z,100680.84
2023-01-28T03:44:55.222Z,100685.09
2023-01-28T03:47:27.858Z,100690.47
2023-01-28T03:49:55.814Z,100698.97
2023-01-28T03:52:25.934Z,100697.63
2023-01-28T03:54:55.924Z,100707.06
2023-01-28T03:57:24.825Z,100710.63
2023-01-28T03:59:52.806Z,100707.34
2023-01-28T04:02:21.620Z,100710.47
2023-01-28T04:04:52.557Z,100713.25
2023-01-28T04:07:19.412Z,100709.78
2023-01-28T04:10:13.357Z,100701.91
2023-01-28T04:12:51.283Z,100706.34
2023-01-28T04:15:19.362Z,100714.22
2023-01-28T04:17:48.885Z,100712.25
2023-01-28T04:20:23.642Z,100715.88
2023-01-28T04:22:50.340Z,100722.00
2023-01-28T04:25:36.987Z,100726.47
2023-01-28T04:28:06.679Z,100722.94
2023-01-28T04:30:34.525Z,100727.19
2023-01-28T04:33:21.676Z,100732.38
2023-01-28T04:35:54.297Z,100726.34
2023-01-28T04:38:56.487Z,100731.66
2023-01-28T04:41:45.980Z,100723.72
2023-01-28T04:44:21.938Z,100727.19
2023-01-28T04:46:54.845Z,100735.91
2023-01-28T04:49:40.963Z,100736.88
2023-01-28T04:52:25.214Z,100730.66
2023-01-28T04:55:07.735Z,100734.88
2023-01-28T04:57:34.604Z,100726.09
2023-01-28T05:00:01.367Z,100733.16
2023-01-28T05:02:28.346Z,100734.03
2023-01-28T05:04:55.103Z,100736.66
2023-01-28T05:07:42.105Z,100740.97
2023-01-28T05:10:09.443Z,100732.06
2023-01-28T05:12:36.348Z,100735.47
2023-01-28T05:15:07.749Z,100738.22
2023-01-28T05:17:34.485Z,100746.88
2023-01-28T05:20:01.552Z,100749.50
2023-01-28T05:22:29.234Z,100745.25
2023-01-28T05:25:15.012Z,100744.38
2023-01-28T05:27:41.986Z,100741.69
2023-01-28T05:30:09.287Z,100740.84
2023-01-28T05:32:36.155Z,100747.00
2023-01-28T05:35:03.035Z,100748.69
2023-01-28T05:37:29.943Z,100751.41
2023-01-28T05:39:57.429Z,100754.03
2023-01-28T05:42:24.258Z,100755.78
2023-01-28T05:44:56.662Z,100761.03
2023-01-28T05:47:38.886Z,100755.72
2023-01-28T05:50:25.912Z,100755.72
2023-01-28T05:53:14.370Z,100765.25
2023-01-28T05:55:43.980Z,100768.53
2023-01-28T05:58:10.720Z,100765.09
2023-01-28T06:00:37.453Z,100769.31
2023-01-28T06:03:05.186Z,100775.47
2023-01-28T06:05:32.465Z,100774.63
2023-01-28T06:08:00.897Z,100785.25
2023-01-28T06:10:27.701Z,100778.41
2023-01-28T06:12:55.200Z,100781.78
2023-01-28T06:16:00.438Z,100790.53
2023-01-28T06:18:38.562Z,100795.69
2023-01-28T06:21:05.532Z,100798.31
2023-01-28T06:23:32.280Z,100802.00
2023-01-28T06:25:59.134Z,100801.72
2023-01-28T06:28:26.097Z,100818.03
2023-01-28T06:30:53.577Z,100816.53
2023-01-28T06:33:20.595Z,100803.97
2023-01-28T06:35:47.252Z,100812.50
2023-01-28T06:38:14.162Z,100817.88
2023-01-28T06:40:40.850Z,100811.72
2023-01-28T06:43:07.621Z,100817.16
2023-01-28T06:45:34.409Z,100815.13
2023-01-28T06:48:01.111Z,100816.91
2023-01-28T06:50:27.833Z,100824.63
2023-01-28T06:52:54.516Z,100823.78
2023-01-28T06:55:21.265Z,100836.91
2023-01-28T06:57:47.995Z,100830.75
2023-01-28T07:00:16.818Z,100843.66
2023-01-28T07:02:43.776Z,100844.59
2023-01-28T07:05:10.691Z,100837.69
2023-01-28T07:07:37.528Z,100837.69
2023-01-28T07:10:05.464Z,100841.97
2023-01-28T07:12:32.114Z,100847.22
2023-01-28T07:14:58.844Z,100844.63
2023-01-28T07:17:25.544Z,100847.25
2023-01-28T07:19:52.284Z,100850.84
2023-01-28T07:22:18.945Z,100850.94
2023-01-28T07:24:45.576Z,100851.75
2023-01-28T07:27:12.219Z,100853.38
2023-01-28T07:29:38.938Z,100859.84
2023-01-28T07:32:07.256Z,100858.94
2023-01-28T07:34:34.200Z,100857.03
2023-01-28T07:37:08.892Z,100856.22
2023-01-28T07:39:35.645Z,100867.81
2023-01-28T07:42:02.829Z,100871.84
2023-01-28T07:44:32.616Z,100865.94
2023-01-28T07:46:59.291Z,100869.44
2023-01-28T07:49:25.992Z,100876.53
2023-01-28T07:51:52.714Z,100867.56
2023-01-28T07:54:19.436Z,100873.69
2023-01-28T07:56:46.317Z,100873.03
2023-01-28T07:59:12.995Z,100884.41
2023-01-28T08:01:39.703Z,100876.53
2023-01-28T08:04:06.657Z,100872.94
2023-01-28T08:06:37.781Z,100883.59
2023-01-28T08:09:06.102Z,100887.13
2023-01-28T08:11:33.218Z,100876.50
2023-01-28T08:14:00.368Z,100870.31
2023-01-28T08:16:27.680Z,100875.75
2023-01-28T08:18:54.302Z,100875.81
2023-01-28T08:21:20.989Z,100880.31
2023-01-28T08:23:47.756Z,100884.41
2023-01-28T08:26:14.406Z,100886.53
2023-01-28T08:28:41.191Z,100894.31
2023-01-28T08:31:08.435Z,100897.09
2023-01-28T08:33:35.238Z,100901.38
2023-01-28T08:36:05.458Z,100890.88
2023-01-28T08:38:32.219Z,100901.13
2023-01-28T08:40:59.950Z,100898.31
2023-01-28T08:43:26.696Z,100899.34
2023-01-28T08:45:53.398Z,100903.69
2023-01-28T08:48:20.522Z,100894.19
2023-01-28T08:50:47.357Z,100906.44
2023-01-28T08:53:16.763Z,100909.06
2023-01-28T08:55:43.513Z,100906.50
2023-01-28T08:58:12.138Z,100920.53
2023-01-28T09:00:39.706Z,100913.56
2023-01-28T09:03:06.876Z,100911.78
2023-01-28T09:05:37.390Z,100913.56
2023-01-28T09:08:06.176Z,100909.22
2023-01-28T09:10:32.912Z,100923.03
2023-01-28T09:13:02.519Z,100917.78
2023-01-28T09:15:29.236Z,100929.00
2023-01-28T09:17:59.302Z,100919.56
2023-01-28T09:20:26.538Z,100921.25
2023-01-28T09:22:53.392Z,100935.09
2023-01-28T09:25:20.122Z,100926.63
2023-01-28T09:27:46.875Z,100932.84
2023-01-28T09:30:14.418Z,100932.75
2023-01-28T09:32:41.227Z,100932.75
2023-01-28T09:35:08.406Z,100929.28
2023-01-28T09:37:35.216Z,100928.31
2023-01-28T09:40:02.486Z,100938.00
2023-01-28T09:42:34.955Z,100937.94
2023-01-28T09:45:09.772Z,100944.22
2023-01-28T09:47:39.358Z,100951.88
2023-01-28T09:50:09.886Z,100957.84
2023-01-28T09:52:39.627Z,100959.72
2023-01-28T09:55:15.354Z,100950.72
2023-01-28T09:57:46.662Z,100961.91
2023-01-28T10:00:15.945Z,100961.38
2023-01-28T10:02:51.174Z,100960.41
2023-01-28T10:05:31.135Z,100961.13
2023-01-28T10:08:26.549Z,100956.19
2023-01-28T10:11:07.042Z,100960.91
2023-01-28T10:13:48.021Z,100959.06
2023-01-28T10:16:23.944Z,100958.00
2023-01-28T10:19:19.510Z,100950.94
2023-01-28T10:22:02.058Z,100944.59
2023-01-28T10:24:31.735Z,100946.47
2023-01-28T10:26:58.497Z,100951.63
2023-01-28T10:29:31.139Z,100952.59
2023-01-28T10:32:30.875Z,100947.75
2023-01-28T10:35:04.176Z,100951.88
2023-01-28T10:37:34.557Z,100955.34
2023-01-28T10:40:02.979Z,100955.34
2023-01-28T10:42:32.944Z,100958.09
2023-01-28T10:45:03.591Z,100958.88
2023-01-28T10:47:35.198Z,100954.59
2023-01-28T10:50:02.856Z,100958.94
2023-01-28T10:52:29.557Z,100961.50
2023-01-28T10:55:04.810Z,100962.66
2023-01-28T10:57:33.931Z,100962.28
2023-01-28T11:00:11.962Z,100958.69
2023-01-28T11:02:38.783Z,100963.88
2023-01-28T11:05:21.226Z,100962.53
2023-01-28T11:07:49.875Z,100966.50
2023-01-28T11:10:32.270Z,100955.00
2023-01-28T11:13:00.503Z,100971.75
2023-01-28T11:15:27.283Z,100970.06
2023-01-28T11:18:00.249Z,100975.41
2023-01-28T11:20:28.667Z,100966.78
2023-01-28T11:22:55.918Z,100970.81
2023-01-28T11:25:32.631Z,100971.03
2023-01-28T11:28:01.183Z,100976.06
2023-01-28T11:30:30.303Z,100962.78
2023-01-28T11:33:00.931Z,100970.78
2023-01-28T11:35:30.677Z,100977.13
2023-01-28T11:37:58.949Z,100969.13
2023-01-28T11:40:25.988Z,100971.47
2023-01-28T11:42:54.007Z,100963.34
2023-01-28T11:45:32.684Z,100976.59
2023-01-28T11:48:18.355Z,100974.53
2023-01-28T11:51:05.179Z,100974.53
2023-01-28T11:54:00.633Z,100982.41
2023-01-28T11:56:36.521Z,100988.34
2023-01-28T11:59:23.025Z,100973.00
2023-01-28T12:02:09.821Z,100973.88
2023-01-28T12:05:00.306Z,100978.97
2023-01-28T12:07:42.572Z,100969.41
2023-01-28T12:10:27.196Z,100970.16
2023-01-28T12:13:21.506Z,100959.91
2023-01-28T12:15:49.829Z,100957.97
2023-01-28T12:18:19.810Z,100956.16
2023-01-28T12:21:11.303Z,100945.41
2023-01-28T12:24:03.220Z,100951.44
2023-01-28T12:26:35.626Z,100950.31
2023-01-28T12:29:19.050Z,100940.53
2023-01-28T12:32:10.019Z,100947.94
2023-01-28T12:35:12.159Z,100939.41
2023-01-28T12:38:01.534Z,100946.63
2023-01-28T12:40:40.164Z,100937.91
2023-01-28T12:43:39.765Z,100937.13
2023-01-28T12:46:19.056Z,100937.88
2023-01-28T12:48:53.505Z,100942.19
2023-01-28T12:51:25.216Z,100951.16
2023-01-28T12:54:16.662Z,100937.91
2023-01-28T12:56:52.074Z,100928.09
2023-01-28T12:59:25.083Z,100928.06
2023-01-28T13:01:57.887Z,100928.91
2023-01-28T13:04:39.824Z,100928.06
2023-01-28T13:07:14.379Z,100923.66
2023-01-28T13:09:48.822Z,100932.44
2023-01-28T13:12:15.654Z,100934.66
2023-01-28T13:14:42.597Z,100925.00
2023-01-28T13:17:13.505Z,100936.34
2023-01-28T13:19:41.285Z,100939.13
2023-01-28T13:22:31.510Z,100928.84
2023-01-28T13:25:13.999Z,100920.84
2023-01-28T13:27:43.259Z,100926.03
2023-01-28T13:30:33.005Z,100936.59
2023-01-28T13:33:07.090Z,100934.88
2023-01-28T13:35:40.780Z,100931.66
2023-01-28T13:38:18.481Z,100936.91
2023-01-28T13:40:55.352Z,100940.19
2023-01-28T13:43:34.005Z,100941.97
2023-01-28T13:46:04.116Z,100945.19
2023-01-28T13:48:39.504Z,100933.31
2023-01-28T13:51:15.654Z,100948.28
2023-01-28T13:53:48.818Z,100947.44
2023-01-28T13:56:22.204Z,100951.59
2023-01-28T13:58:51.886Z,100948.38
2023-01-28T14:01:39.194Z,100956.22
2023-01-28T14:04:42.797Z,100965.81
2023-01-28T14:07:31.327Z,100971.47
2023-01-28T14:10:03.769Z,100964.22
2023-01-28T14:12:45.762Z,100977.28
2023-01-28T14:15:37.999Z,100975.50
2023-01-28T14:18:13.708Z,100980.00
2023-01-28T14:20:45.022Z,100985.00
2023-01-28T14:23:17.686Z,100987.19
2023-01-28T14:25:50.218Z,101003.09
2023-01-28T14:28:35.993Z,101007.53
2023-01-28T14:31:15.382Z,100995.13
2023-01-28T14:33:43.284Z,100997.13
2023-01-28T14:36:11.627Z,101004.88
2023-01-28T14:38:41.445Z,101007.53
2023-01-28T14:41:09.346Z,101002.38
2023-01-28T14:43:36.536Z,101011.25
2023-01-28T14:46:43.118Z,101008.88
2023-01-28T14:49:12.555Z,101005.38
2023-01-28T14:51:49.238Z,101008.72
2023-01-28T14:54:45.597Z,101014.56
2023-01-28T14:57:32.109Z,101015.00
2023-01-28T14:59:59.810Z,101006.13
2023-01-28T15:02:28.344Z,101006.28
2023-01-28T15:04:55.836Z,101009.56
2023-01-28T15:07:24.312Z,101010.41
2023-01-28T15:10:15.062Z,101014.63
2023-01-28T15:12:45.089Z,101019.25
2023-01-28T15:15:16.609Z,101024.09
2023-01-28T15:17:43.575Z,101025.00
2023-01-28T15:20:17.280Z,101025.91
2023-01-28T15:22:44.920Z,101029.22
2023-01-28T15:25:20.272Z,101025.19
2023-01-28T15:27:47.300Z,101033.69
2023-01-28T15:30:26.116Z,101039.22
2023-01-28T15:32:59.652Z,101040.59
2023-01-28T15:35:26.437Z,101043.97
2023-01-28T15:37:53.208Z,101048.72
2023-01-28T15:40:21.696Z,101044.47
2023-01-28T15:42:49.393Z,101047.13
2023-01-28T15:45:21.319Z,101049.75
2023-01-28T15:47:49.416Z,101047.16
2023-01-28T15:50:24.552Z,101041.91
2023-01-28T15:52:52.607Z,101042.59
2023-01-28T15:55:30.667Z,101035.91
2023-01-28T15:57:57.386Z,101047.97
2023-01-28T16:00:25.283Z,101049.44
2023-01-28T16:02:54.051Z,101039.66
2023-01-28T16:05:36.260Z,101043.97
2023-01-28T16:08:07.260Z,101046.63
2023-01-28T16:10:34.016Z,101046.75
2023-01-28T16:13:22.894Z,101045.78
2023-01-28T16:15:52.608Z,101042.19
2023-01-28T16:18:43.424Z,101033.44
2023-01-28T16:21:12.681Z,101040.19
2023-01-28T16:23:39.898Z,101047.16
2023-01-28T16:26:21.147Z,101041.88
2023-01-28T16:28:47.774Z,101048.78
2023-01-28T16:31:14.648Z,101052.09
2023-01-28T16:33:41.394Z,101036.34
2023-01-28T16:36:16.140Z,101046.13
2023-01-28T16:38:42.867Z,101039.03
2023-01-28T16:41:26.969Z,101048.13
2023-01-28T16:43:53.883Z,101044.69
2023-01-28T16:46:20.641Z,101048.28
2023-01-28T16:48:47.317Z,101051.72
2023-01-28T16:51:18.705Z,101049.94
2023-01-28T16:53:48.932Z,101053.75
2023-01-28T16:56:44.115Z,101051.25
2023-01-28T16:59:11.424Z,101064.22
2023-01-28T17:01:38.106Z,101072.69
2023-01-28T17:04:11.563Z,101083.19
2023-01-28T17:06:39.396Z,101090.16
2023-01-28T17:09:06.078Z,101084.91
2023-01-28T17:11:33.704Z,101082.50
2023-01-28T17:14:01.047Z,101082.38
2023-01-28T17:16:28.083Z,101090.25
2023-01-28T17:18:54.761Z,101086.84
2023-01-28T17:21:21.896Z,101085.88
2023-01-28T17:23:48.557Z,101090.19
2023-01-28T17:26:16.398Z,101095.34
2023-01-28T17:28:43.689Z,101091.06
2023-01-28T17:31:15.084Z,101089.25
2023-01-28T17:33:41.971Z,101102.47
2023-01-28T17:36:09.448Z,101097.41
2023-01-28T17:38:36.499Z,101094.06
2023-01-28T17:41:08.131Z,101095.19
2023-01-28T17:43:35.106Z,101100.41
2023-01-28T17:46:01.957Z,101093.34
2023-01-28T17:48:31.600Z,101091.75
2023-01-28T17:50:58.407Z,101092.81
2023-01-28T17:53:25.101Z,101098.06
2023-01-28T17:55:51.830Z,101101.63
2023-01-28T17:58:18.650Z,101121.00
2023-01-28T18:00:45.324Z,101118.28
2023-01-28T18:03:13.213Z,101123.47
2023-01-28T18:05:40.400Z,101130.63
2023-01-28T18:08:07.619Z,101124.59
2023-01-28T18:10:34.914Z,101125.00
2023-01-28T18:13:02.033Z,101128.00
2023-01-28T18:15:28.891Z,101142.75
2023-01-28T18:17:55.591Z,101135.81
2023-01-28T18:20:22.245Z,101129.72
2023-01-28T18:22:48.977Z,101134.81
2023-01-28T18:25:17.172Z,101143.78
2023-01-28T18:27:44.673Z,101135.97
2023-01-28T18:30:14.028Z,101140.31
2023-01-28T18:32:40.778Z,101148.81
2023-01-28T18:35:07.918Z,101149.78
2023-01-28T18:37:34.592Z,101156.56
2023-01-28T18:40:01.306Z,101148.06
2023-01-28T18:42:28.120Z,101147.38
2023-01-28T18:44:54.769Z,101149.91
2023-01-28T18:47:21.771Z,101154.66
2023-01-28T18:49:49.518Z,101150.09
2023-01-28T18:52:16.173Z,101151.06
2023-01-28T18:54:42.864Z,101158.69
2023-01-28T18:57:09.533Z,101158.75
2023-01-28T18:59:36.375Z,101161.19
2023-01-28T19:02:03.149Z,101152.59
2023-01-28T19:04:30.159Z,101146.34
2023-01-28T19:06:57.375Z,101148.94
2023-01-28T19:09:24.157Z,101147.16
2023-01-28T19:11:51.066Z,101153.31
2023-01-28T19:14:17.921Z,101156.69
2023-01-28T19:16:45.151Z,101151.28
2023-01-28T19:19:12.415Z,101148.66
2023-01-28T19:21:39.479Z,101152.16
2023-01-28T19:24:09.645Z,101153.22
2023-01-28T19:26:38.596Z,101150.63
2023-01-28T19:29:10.218Z,101141.22
2023-01-28T19:31:37.935Z,101131.31
2023-01-28T19:34:05.372Z,101140.13
2023-01-28T19:36:33.962Z,101140.50
2023-01-28T19:39:06.152Z,101152.91
2023-01-28T19:41:32.866Z,101169.78
2023-01-28T19:43:59.775Z,101180.03
2023-01-28T19:46:26.915Z,101185.59
2023-01-28T19:48:54.090Z,101193.22
2023-01-28T19:51:21.438Z,101197.81
2023-01-28T19:53:51.164Z,101196.63
2023-01-28T19:56:18.506Z,101204.00
2023-01-28T19:58:45.770Z,101207.19
2023-01-28T20:01:18.084Z,101207.41
2023-01-28T20:03:45.711Z,101216.03
2023-01-28T20:06:14.457Z,101224.41
2023-01-28T20:08:41.619Z,101224.22
2023-01-28T20:11:11.144Z,101235.31
2023-01-28T20:13:38.849Z,101236.19
2023-01-28T20:16:11.615Z,101232.56
2023-01-28T20:18:38.330Z,101232.28
2023-01-28T20:21:07.549Z,101221.88
2023-01-28T20:23:34.395Z,101219.19
2023-01-28T20:26:01.288Z,101219.19
2023-01-28T20:28:28.258Z,101218.78
2023-01-28T20:30:55.697Z,101216.47
2023-01-28T20:33:22.844Z,101217.44
2023-01-28T20:35:49.570Z,101235.13
2023-01-28T20:38:16.391Z,101212.31
2023-01-28T20:40:43.858Z,101222.69
2023-01-28T20:43:10.712Z,101224.44
2023-01-28T20:45:37.619Z,101241.09
2023-01-28T20:48:04.462Z,101229.72
2023-01-28T20:50:31.140Z,101234.19
2023-01-28T20:52:58.034Z,101234.34
2023-01-28T20:55:24.815Z,101233.22
2023-01-28T20:57:52.578Z,101234.34
2023-01-28T21:00:19.702Z,101235.16
2023-01-28T21:02:55.467Z,101229.16
2023-01-28T21:05:22.148Z,101225.63
2023-01-28T21:07:48.846Z,101218.63
2023-01-28T21:10:15.854Z,101220.28
2023-01-28T21:12:42.742Z,101229.28
2023-01-28T21:15:09.778Z,101236.34
2023-01-28T21:17:36.490Z,101241.66
2023-01-28T21:20:04.929Z,101240.19
2023-01-28T21:22:31.653Z,101235.19
2023-01-28T21:24:58.310Z,101243.19
2023-01-28T21:27:24.986Z,101226.31
2023-01-28T21:29:51.778Z,101227.53
2023-01-28T21:32:18.564Z,101227.31
2023-01-28T21:34:45.253Z,101233.59
2023-01-28T21:37:11.984Z,101237.19
2023-01-28T21:39:38.641Z,101235.31
2023-01-28T21:42:05.301Z,101232.75
2023-01-28T21:44:32.287Z,101226.75
2023-01-28T21:46:59.066Z,101236.38
2023-01-28T21:49:25.798Z,101245.16
2023-01-28T21:51:52.463Z,101233.09
2023-01-28T21:54:19.910Z,101230.31
2023-01-28T21:56:50.876Z,101229.53
2023-01-28T21:59:27.802Z,101233.00
2023-01-28T22:01:58.480Z,101248.41
2023-01-28T22:04:34.357Z,101245.78
2023-01-28T22:07:02.696Z,101237.09
2023-01-28T22:09:29.826Z,101241.69
2023-01-28T22:11:56.736Z,101248.81
2023-01-28T22:14:23.425Z,101246.03
2023-01-28T22:16:50.282Z,101237.22
2023-01-28T22:19:17.028Z,101245.38
2023-01-28T22:21:45.706Z,101246.09
2023-01-28T22:24:14.824Z,101232.78
2023-01-28T22:26:41.803Z,101231.00
2023-01-28T22:29:09.643Z,101226.63
2023-01-28T22:31:36.775Z,101219.59
2023-01-28T22:34:04.200Z,101217.06
2023-01-28T22:36:32.872Z,101214.59
2023-01-28T22:39:02.862Z,101211.97
2023-01-28T22:41:29.655Z,101207.53
2023-01-28T22:43:56.482Z,101201.44
2023-01-28T22:46:24.135Z,101199.69
2023-01-28T22:48:50.869Z,101212.91
2023-01-28T22:51:20.837Z,101209.38
2023-01-28T22:53:48.213Z,101195.41
2023-01-28T22:56:15.866Z,101197.28
2023-01-28T22:58:42.877Z,101204.31
2023-01-28T23:01:09.717Z,101195.56
2023-01-28T23:03:36.495Z,101193.66
2023-01-28T23:06:04.700Z,101199.09
2023-01-28T23:08:32.332Z,101204.41
2023-01-28T23:11:01.789Z,101200.06
2023-01-28T23:13:49.186Z,101201.84
2023-01-28T23:16:34.497Z,101200.34
2023-01-28T23:19:20.060Z,101206.47
2023-01-28T23:22:05.335Z,101206.47
2023-01-28T23:24:32.950Z,101209.06
2023-01-28T23:27:02.897Z,101203.13
2023-01-28T23:29:31.276Z,101201.28
2023-01-28T23:32:01.226Z,101199.63
2023-01-28T23:34:34.395Z,101205.84
2023-01-28T23:37:02.423Z,101208.63
2023-01-28T23:39:29.127Z,101200.69
2023-01-28T23:42:12.720Z,101206.16
2023-01-28T23:44:40.723Z,101200.09
2023-01-28T23:47:07.845Z,101194.13
2023-01-28T23:49:34.881Z,101195.03
2023-01-28T23:52:01.967Z,101184.66
2023-01-28T23:54:29.001Z,101192.63
2023-01-28T23:56:55.757Z,101182.19
2023-01-28T23:59:22.458Z,101192.56
